createdAt,value
2018-10-06T00:01:24.406Z,9.28
2018-10-06T00:03:53.198Z,9.19
2018-10-06T00:06:22.081Z,9.18
2018-10-06T00:08:51.182Z,9.05
2018-10-06T00:11:21.040Z,9.04
2018-10-06T00:13:49.980Z,9.13
2018-10-06T00:16:18.847Z,9.14
2018-10-06T00:18:47.630Z,9.07
2018-10-06T00:21:16.631Z,9.05
2018-10-06T00:23:45.350Z,9.01
2018-10-06T00:26:13.983Z,8.91
2018-10-06T00:28:42.671Z,8.92
2018-10-06T00:31:11.339Z,8.88
2018-10-06T00:33:40.054Z,8.94
2018-10-06T00:36:08.698Z,8.78
2018-10-06T00:38:37.271Z,8.86
2018-10-06T00:41:06.131Z,8.98
2018-10-06T00:43:34.713Z,9.00
2018-10-06T00:46:03.301Z,8.90
2018-10-06T00:48:32.017Z,8.98
2018-10-06T00:51:00.772Z,8.87
2018-10-06T00:53:29.517Z,8.73
2018-10-06T00:58:34.042Z,8.65
2018-10-06T01:01:03.782Z,8.60
2018-10-06T01:03:32.553Z,8.64
2018-10-06T01:06:01.367Z,8.51
2018-10-06T01:08:30.302Z,8.43
2018-10-06T01:10:59.523Z,8.40
2018-10-06T01:13:28.189Z,8.52
2018-10-06T01:15:56.909Z,8.56
2018-10-06T01:18:25.518Z,8.63
2018-10-06T01:20:54.269Z,8.66
2018-10-06T01:23:22.891Z,8.65
2018-10-06T01:25:51.613Z,8.65
2018-10-06T01:28:20.380Z,8.68
2018-10-06T01:30:48.933Z,8.70
2018-10-06T01:33:17.538Z,8.63
2018-10-06T01:35:46.175Z,8.59
2018-10-06T01:38:14.875Z,8.62
2018-10-06T01:40:43.622Z,8.59
2018-10-06T01:43:12.550Z,8.64
2018-10-06T01:45:41.193Z,8.66
2018-10-06T01:48:09.787Z,8.75
2018-10-06T01:50:38.567Z,8.71
2018-10-06T01:53:07.245Z,8.61
2018-10-06T01:55:35.877Z,8.61
2018-10-06T01:58:05.722Z,8.69
2018-10-06T02:00:34.659Z,8.78
2018-10-06T02:03:03.651Z,8.88
2018-10-06T02:05:33.226Z,8.92
2018-10-06T02:08:02.008Z,8.96
2018-10-06T02:10:31.000Z,8.96
2018-10-06T02:12:59.770Z,8.97
2018-10-06T02:15:28.382Z,9.00
2018-10-06T02:17:56.960Z,9.01
2018-10-06T02:20:25.744Z,9.04
2018-10-06T02:22:54.713Z,9.00
2018-10-06T02:25:23.485Z,9.00
2018-10-06T02:27:52.155Z,9.00
2018-10-06T02:30:20.863Z,9.00
2018-10-06T02:32:49.842Z,8.95
2018-10-06T02:35:18.501Z,8.87
2018-10-06T02:37:47.042Z,8.85
2018-10-06T02:40:15.841Z,8.80
2018-10-06T02:42:44.401Z,8.72
2018-10-06T02:45:12.966Z,8.69
2018-10-06T02:47:41.530Z,8.72
2018-10-06T02:50:10.467Z,8.69
2018-10-06T02:52:39.068Z,8.68
2018-10-06T02:55:08.020Z,8.67
2018-10-06T02:57:36.630Z,8.55
2018-10-06T03:00:05.718Z,8.56
2018-10-06T03:02:34.358Z,8.48
2018-10-06T03:05:02.986Z,8.58
2018-10-06T03:07:31.549Z,8.69
2018-10-06T03:10:00.221Z,8.75
2018-10-06T03:12:28.770Z,8.70
2018-10-06T03:14:57.497Z,8.71
2018-10-06T03:17:26.197Z,8.71
2018-10-06T03:19:54.817Z,8.72
2018-10-06T03:22:23.454Z,8.74
2018-10-06T03:24:52.023Z,8.76
2018-10-06T03:27:20.649Z,8.79
2018-10-06T03:29:49.414Z,8.76
2018-10-06T03:32:18.089Z,8.78
2018-10-06T03:34:46.952Z,8.82
2018-10-06T03:37:15.601Z,8.88
2018-10-06T03:39:44.139Z,8.91
2018-10-06T03:42:12.854Z,8.93
2018-10-06T03:44:41.406Z,8.92
2018-10-06T03:47:09.957Z,8.94
2018-10-06T03:49:38.509Z,8.95
2018-10-06T03:52:07.350Z,8.97
2018-10-06T03:54:36.170Z,8.99
2018-10-06T03:57:04.802Z,9.01
2018-10-06T03:59:33.487Z,9.02
2018-10-06T04:02:04.113Z,9.02
2018-10-06T04:04:32.693Z,9.04
2018-10-06T04:07:01.454Z,9.09
2018-10-06T04:09:30.111Z,9.11
2018-10-06T04:11:58.899Z,9.11
2018-10-06T04:14:27.551Z,9.08
2018-10-06T04:16:56.161Z,8.98
2018-10-06T04:19:24.731Z,8.91
2018-10-06T04:21:53.278Z,8.83
2018-10-06T04:24:22.084Z,8.76
2018-10-06T04:26:50.613Z,8.76
2018-10-06T04:29:19.297Z,8.68
2018-10-06T04:31:47.936Z,8.59
2018-10-06T04:34:16.544Z,8.48
2018-10-06T04:36:45.246Z,8.40
2018-10-06T04:39:14.236Z,8.33
2018-10-06T04:41:42.822Z,8.29
2018-10-06T04:44:11.451Z,8.34
2018-10-06T04:46:40.496Z,8.32
2018-10-06T04:49:09.291Z,8.39
2018-10-06T04:51:37.978Z,8.43
2018-10-06T04:54:06.574Z,8.32
2018-10-06T04:56:35.150Z,8.31
2018-10-06T04:59:03.832Z,8.39
2018-10-06T05:01:32.378Z,8.40
2018-10-06T05:04:01.263Z,8.43
2018-10-06T05:06:29.882Z,8.53
2018-10-06T05:08:58.760Z,8.47
2018-10-06T05:11:27.381Z,8.48
2018-10-06T05:13:56.263Z,8.58
2018-10-06T05:16:24.837Z,8.64
2018-10-06T05:21:26.303Z,8.72
2018-10-06T05:23:55.232Z,8.86
2018-10-06T05:26:24.002Z,8.97
2018-10-06T05:28:52.969Z,9.08
2018-10-06T05:31:22.030Z,9.21
2018-10-06T05:33:50.755Z,9.29
2018-10-06T05:36:19.477Z,9.34
2018-10-06T05:38:48.085Z,9.41
2018-10-06T05:41:16.610Z,9.50
2018-10-06T05:43:45.193Z,9.56
2018-10-06T05:46:14.442Z,9.58
2018-10-06T05:48:43.270Z,9.64
2018-10-06T05:51:11.963Z,9.69
2018-10-06T05:53:40.770Z,9.72
2018-10-06T05:56:09.466Z,9.73
2018-10-06T05:58:38.174Z,9.81
2018-10-06T06:01:07.182Z,9.79
2018-10-06T06:03:36.374Z,9.87
2018-10-06T06:06:05.875Z,10.13
2018-10-06T06:08:34.559Z,10.42
2018-10-06T06:11:03.330Z,10.58
2018-10-06T06:13:32.133Z,10.89
2018-10-06T06:16:01.413Z,11.52
2018-10-06T06:18:30.717Z,12.58
2018-10-06T06:20:59.473Z,13.67
2018-10-06T06:23:28.137Z,14.65
2018-10-06T06:25:56.689Z,15.48
2018-10-06T06:28:25.750Z,16.03
2018-10-06T06:30:54.383Z,16.73
2018-10-06T06:33:23.986Z,17.40
2018-10-06T06:35:53.280Z,17.87
2018-10-06T06:38:22.212Z,18.33
2018-10-06T06:40:52.007Z,18.71
2018-10-06T06:43:21.686Z,18.94
2018-10-06T06:45:50.453Z,19.36
2018-10-06T06:48:20.231Z,19.31
2018-10-06T06:50:48.982Z,19.30
2018-10-06T06:53:17.847Z,19.33
2018-10-06T06:55:46.530Z,19.34
2018-10-06T06:58:15.970Z,18.84
2018-10-06T07:00:44.861Z,19.51
2018-10-06T07:03:13.659Z,20.13
2018-10-06T07:05:42.694Z,20.16
2018-10-06T07:08:13.678Z,20.61
2018-10-06T07:13:11.101Z,20.90
2018-10-06T07:15:39.838Z,21.09
2018-10-06T07:18:08.563Z,21.01
2018-10-06T07:20:37.370Z,20.86
2018-10-06T07:23:05.950Z,21.44
2018-10-06T07:25:35.306Z,21.48
2018-10-06T07:28:04.303Z,22.25
2018-10-06T07:30:34.107Z,22.63
2018-10-06T07:33:03.010Z,22.97
2018-10-06T07:35:31.905Z,22.80
2018-10-06T07:38:01.728Z,23.04
2018-10-06T07:40:30.294Z,23.51
2018-10-06T07:42:58.958Z,23.31
2018-10-06T07:45:28.072Z,23.08
2018-10-06T07:47:56.825Z,22.85
2018-10-06T07:50:25.762Z,22.46
2018-10-06T07:52:55.375Z,22.54
2018-10-06T07:55:30.629Z,23.24
2018-10-06T07:57:59.700Z,23.62
2018-10-06T08:00:28.395Z,24.09
2018-10-06T08:02:57.450Z,24.14
2018-10-06T08:05:27.075Z,25.12
2018-10-06T08:07:55.813Z,25.97
2018-10-06T08:10:24.493Z,24.95
2018-10-06T08:12:53.539Z,24.55
2018-10-06T08:15:23.648Z,24.66
2018-10-06T08:17:52.210Z,24.20
2018-10-06T08:20:21.606Z,23.25
2018-10-06T08:22:50.388Z,22.48
2018-10-06T08:25:19.158Z,21.91
2018-10-06T08:27:48.405Z,21.30
2018-10-06T08:30:17.850Z,20.58
2018-10-06T08:32:47.054Z,20.06
2018-10-06T08:35:16.229Z,19.84
2018-10-06T08:37:45.031Z,19.90
2018-10-06T08:40:13.660Z,19.93
2018-10-06T08:42:42.944Z,20.21
2018-10-06T08:45:11.682Z,20.28
2018-10-06T08:47:40.253Z,20.34
2018-10-06T08:50:08.794Z,20.22
2018-10-06T08:52:37.524Z,20.12
2018-10-06T08:55:06.261Z,20.00
2018-10-06T08:57:34.978Z,20.03
2018-10-06T09:00:03.616Z,20.06
2018-10-06T09:02:32.178Z,19.96
2018-10-06T09:05:00.782Z,19.97
2018-10-06T09:07:29.814Z,20.01
2018-10-06T09:09:58.495Z,20.02
2018-10-06T09:12:28.134Z,20.18
2018-10-06T09:14:56.787Z,20.22
2018-10-06T09:17:26.574Z,20.34
2018-10-06T09:19:55.353Z,20.43
2018-10-06T09:22:24.729Z,20.47
2018-10-06T09:24:53.369Z,20.28
2018-10-06T09:27:22.630Z,20.26
2018-10-06T09:29:52.025Z,20.31
2018-10-06T09:32:20.705Z,20.30
2018-10-06T09:34:49.952Z,20.35
2018-10-06T09:37:18.598Z,20.48
2018-10-06T09:39:47.355Z,20.57
2018-10-06T09:42:16.487Z,20.63
2018-10-06T09:44:45.332Z,20.69
2018-10-06T09:47:13.953Z,20.73
2018-10-06T09:49:42.538Z,20.73
2018-10-06T09:52:11.120Z,20.79
2018-10-06T09:54:39.809Z,20.77
2018-10-06T09:57:08.421Z,20.74
2018-10-06T09:59:37.097Z,20.79
2018-10-06T10:02:10.130Z,20.84
2018-10-06T10:04:39.259Z,20.79
2018-10-06T10:07:08.853Z,20.74
2018-10-06T10:09:38.610Z,20.82
2018-10-06T10:12:07.897Z,20.85
2018-10-06T10:14:36.517Z,20.89
2018-10-06T10:17:05.310Z,20.90
2018-10-06T10:19:33.990Z,20.92
2018-10-06T10:22:02.707Z,21.00
2018-10-06T10:24:31.496Z,21.00
2018-10-06T10:27:00.497Z,20.85
2018-10-06T10:29:29.898Z,20.84
2018-10-06T10:31:58.568Z,20.93
2018-10-06T10:34:27.230Z,21.02
2018-10-06T10:36:55.974Z,21.02
2018-10-06T10:39:24.658Z,21.07
2018-10-06T10:41:53.487Z,21.13
2018-10-06T10:44:22.225Z,21.15
2018-10-06T10:46:51.545Z,21.24
2018-10-06T10:49:20.321Z,21.16
2018-10-06T10:51:48.945Z,21.16
2018-10-06T10:54:17.945Z,21.16
2018-10-06T10:56:46.516Z,21.17
2018-10-06T10:59:15.949Z,21.24
2018-10-06T11:01:44.510Z,21.34
2018-10-06T11:04:13.080Z,21.41
2018-10-06T11:06:42.745Z,21.57
2018-10-06T11:09:11.523Z,21.60
2018-10-06T11:11:40.165Z,21.58
2018-10-06T11:14:08.819Z,21.58
2018-10-06T11:16:37.357Z,21.63
2018-10-06T11:19:05.950Z,21.49
2018-10-06T11:21:34.496Z,21.50
2018-10-06T11:24:03.617Z,21.59
2018-10-06T11:26:32.372Z,21.51
2018-10-06T11:29:01.439Z,21.52
2018-10-06T11:31:30.404Z,21.49
2018-10-06T11:33:59.022Z,21.51
2018-10-06T11:36:27.631Z,21.56
2018-10-06T11:38:56.199Z,21.67
2018-10-06T11:41:24.794Z,21.76
2018-10-06T11:46:34.714Z,21.81
2018-10-06T11:49:03.322Z,21.81
2018-10-06T11:51:31.990Z,21.89
2018-10-06T11:54:00.606Z,21.87
2018-10-06T11:56:29.188Z,21.96
2018-10-06T11:58:57.880Z,22.04
2018-10-06T12:01:26.453Z,22.08
2018-10-06T12:03:55.004Z,22.14
2018-10-06T12:06:23.653Z,22.20
2018-10-06T12:08:52.261Z,22.19
2018-10-06T12:11:21.016Z,22.21
2018-10-06T12:13:49.582Z,22.27
2018-10-06T12:16:18.169Z,22.34
2018-10-06T12:18:46.753Z,22.38
2018-10-06T12:21:15.331Z,22.47
2018-10-06T12:23:44.635Z,22.54
2018-10-06T12:26:13.898Z,22.57
2018-10-06T12:28:42.614Z,22.55
2018-10-06T12:31:11.225Z,22.58
2018-10-06T12:33:39.971Z,22.60
2018-10-06T12:36:08.599Z,22.58
2018-10-06T12:38:37.757Z,22.64
2018-10-06T12:41:07.030Z,22.70
2018-10-06T12:43:35.618Z,22.70
2018-10-06T12:46:04.961Z,22.65
2018-10-06T12:48:33.734Z,22.63
2018-10-06T12:51:02.287Z,22.65
2018-10-06T12:53:30.862Z,22.59
2018-10-06T12:55:59.485Z,22.58
2018-10-06T12:58:28.108Z,22.58
2018-10-06T13:00:56.713Z,22.60
2018-10-06T13:03:25.427Z,22.53
2018-10-06T13:05:54.007Z,22.52
2018-10-06T13:08:22.669Z,22.62
2018-10-06T13:10:51.268Z,22.70
2018-10-06T13:13:19.813Z,22.76
2018-10-06T13:15:48.395Z,22.86
2018-10-06T13:18:16.993Z,23.04
2018-10-06T13:20:45.689Z,23.25
2018-10-06T13:23:14.262Z,23.40
2018-10-06T13:25:42.831Z,23.46
2018-10-06T13:28:11.959Z,23.35
2018-10-06T13:30:41.481Z,23.30
2018-10-06T13:33:10.873Z,23.24
2018-10-06T13:35:39.460Z,23.24
2018-10-06T13:38:07.994Z,23.25
2018-10-06T13:40:36.690Z,23.20
2018-10-06T13:43:05.953Z,23.14
2018-10-06T13:45:34.677Z,23.09
2018-10-06T13:48:03.929Z,23.04
2018-10-06T13:50:32.512Z,22.98
2018-10-06T13:53:01.059Z,22.87
2018-10-06T13:55:29.587Z,22.72
2018-10-06T13:57:58.807Z,22.59
2018-10-06T14:00:27.984Z,22.48
2018-10-06T14:02:56.704Z,22.41
2018-10-06T14:05:25.411Z,22.33
2018-10-06T14:07:53.954Z,22.34
2018-10-06T14:10:22.552Z,22.34
2018-10-06T14:12:51.095Z,22.34
2018-10-06T14:15:19.643Z,22.30
2018-10-06T14:17:48.850Z,22.28
2018-10-06T14:20:18.147Z,22.28
2018-10-06T14:22:47.410Z,22.26
2018-10-06T14:25:16.812Z,22.21
2018-10-06T14:27:47.529Z,22.14
2018-10-06T14:30:16.178Z,22.09
2018-10-06T14:32:44.816Z,22.04
2018-10-06T14:35:13.478Z,21.98
2018-10-06T14:37:42.045Z,21.94
2018-10-06T14:40:10.599Z,21.88
2018-10-06T14:42:39.489Z,21.79
2018-10-06T14:45:08.439Z,21.70
2018-10-06T14:47:37.763Z,21.66
2018-10-06T14:50:06.913Z,21.60
2018-10-06T14:52:35.622Z,21.58
2018-10-06T14:57:33.444Z,21.46
2018-10-06T15:00:02.055Z,21.35
2018-10-06T15:02:30.642Z,21.27
2018-10-06T15:04:59.278Z,21.14
2018-10-06T15:07:28.016Z,21.07
2018-10-06T15:09:56.598Z,21.00
2018-10-06T15:12:25.282Z,20.92
2018-10-06T15:14:53.855Z,20.80
2018-10-06T15:17:22.430Z,20.64
2018-10-06T15:19:51.082Z,20.56
2018-10-06T15:22:19.907Z,20.45
2018-10-06T15:24:48.760Z,20.42
2018-10-06T15:27:17.478Z,20.33
2018-10-06T15:29:46.136Z,20.29
2018-10-06T15:32:15.055Z,20.24
2018-10-06T15:34:43.633Z,20.18
2018-10-06T15:37:12.386Z,20.12
2018-10-06T15:39:40.972Z,20.06
2018-10-06T15:42:09.592Z,20.01
2018-10-06T15:44:38.177Z,19.93
2018-10-06T15:47:06.731Z,19.83
2018-10-06T15:49:35.270Z,19.72
2018-10-06T15:52:03.961Z,19.66
2018-10-06T15:54:32.510Z,19.55
2018-10-06T15:57:01.235Z,19.42
2018-10-06T15:59:29.998Z,19.29
2018-10-06T16:01:58.722Z,19.19
2018-10-06T16:04:27.307Z,19.07
2018-10-06T16:06:55.895Z,18.93
2018-10-06T16:09:24.447Z,18.67
2018-10-06T16:11:52.988Z,18.37
2018-10-06T16:14:21.746Z,18.13
2018-10-06T16:16:50.366Z,17.85
2018-10-06T16:19:19.009Z,17.75
2018-10-06T16:21:47.552Z,17.77
2018-10-06T16:24:16.095Z,17.65
2018-10-06T16:26:44.689Z,17.66
2018-10-06T16:29:13.232Z,17.61
2018-10-06T16:31:41.961Z,17.53
2018-10-06T16:34:10.596Z,17.34
2018-10-06T16:36:39.178Z,17.36
2018-10-06T16:39:08.422Z,17.38
2018-10-06T16:41:37.026Z,17.42
2018-10-06T16:44:05.597Z,17.32
2018-10-06T16:46:34.548Z,17.24
2018-10-06T16:49:03.132Z,17.15
2018-10-06T16:51:31.806Z,17.05
2018-10-06T16:54:00.419Z,16.87
2018-10-06T16:56:29.106Z,16.67
2018-10-06T16:58:57.756Z,16.51
2018-10-06T17:01:26.381Z,16.50
2018-10-06T17:03:54.983Z,16.45
2018-10-06T17:06:23.604Z,16.30
2018-10-06T17:08:52.444Z,16.20
2018-10-06T17:11:21.190Z,16.17
2018-10-06T17:13:49.731Z,16.21
2018-10-06T17:16:18.326Z,16.29
2018-10-06T17:18:46.877Z,16.42
2018-10-06T17:21:15.494Z,16.49
2018-10-06T17:23:44.111Z,16.47
2018-10-06T17:26:12.742Z,16.39
2018-10-06T17:28:41.505Z,16.30
2018-10-06T17:33:43.949Z,15.77
2018-10-06T17:36:12.658Z,15.69
2018-10-06T17:38:43.527Z,15.56
2018-10-06T17:41:12.376Z,15.71
2018-10-06T17:43:41.011Z,15.86
2018-10-06T17:46:09.741Z,15.90
2018-10-06T17:48:38.340Z,15.96
2018-10-06T17:51:07.036Z,15.96
2018-10-06T17:53:36.071Z,15.90
2018-10-06T17:56:05.208Z,15.91
2018-10-06T17:58:33.878Z,15.83
2018-10-06T18:01:02.777Z,15.80
2018-10-06T18:03:31.870Z,15.74
2018-10-06T18:06:00.450Z,15.61
2018-10-06T18:08:29.010Z,15.60
2018-10-06T18:10:57.584Z,15.42
2018-10-06T18:13:26.202Z,15.39
2018-10-06T18:15:54.978Z,15.32
2018-10-06T18:18:23.578Z,15.14
2018-10-06T18:20:52.204Z,15.12
2018-10-06T18:23:21.629Z,15.00
2018-10-06T18:25:50.397Z,15.12
2018-10-06T18:28:19.098Z,15.08
2018-10-06T18:30:47.687Z,15.06
2018-10-06T18:33:16.399Z,15.14
2018-10-06T18:35:45.355Z,15.13
2018-10-06T18:38:15.303Z,15.03
2018-10-06T18:40:43.973Z,15.15
2018-10-06T18:43:12.776Z,15.01
2018-10-06T18:45:47.577Z,14.92
2018-10-06T18:48:17.139Z,14.80
2018-10-06T18:50:45.881Z,14.83
2018-10-06T18:53:15.798Z,14.94
2018-10-06T18:55:44.933Z,14.92
2018-10-06T18:58:13.627Z,14.89
2018-10-06T19:00:42.467Z,14.86
2018-10-06T19:03:11.075Z,14.77
2018-10-06T19:05:39.882Z,14.65
2018-10-06T19:08:08.471Z,14.50
2018-10-06T19:10:37.285Z,14.39
2018-10-06T19:13:05.995Z,14.30
2018-10-06T19:15:34.686Z,14.18
2018-10-06T19:18:03.814Z,14.40
2018-10-06T19:20:32.366Z,14.44
2018-10-06T19:23:00.941Z,14.34
2018-10-06T19:25:29.532Z,14.25
2018-10-06T19:27:58.401Z,14.26
2018-10-06T19:30:27.283Z,14.34
2018-10-06T19:32:56.541Z,14.25
2018-10-06T19:35:25.827Z,14.20
2018-10-06T19:37:55.104Z,14.10
2018-10-06T19:40:23.785Z,13.97
2018-10-06T19:42:52.490Z,13.89
2018-10-06T19:45:21.319Z,13.87
2018-10-06T19:47:50.739Z,13.89
2018-10-06T19:50:19.955Z,14.04
2018-10-06T19:52:48.739Z,14.14
2018-10-06T19:55:18.118Z,14.39
2018-10-06T19:57:46.753Z,14.64
2018-10-06T20:00:15.484Z,14.63
2018-10-06T20:02:44.205Z,14.79
2018-10-06T20:05:13.279Z,14.83
2018-10-06T20:07:42.294Z,14.85
2018-10-06T20:10:10.851Z,14.71
2018-10-06T20:12:39.510Z,14.82
2018-10-06T20:15:08.914Z,14.83
2018-10-06T20:17:38.168Z,14.80
2018-10-06T20:20:06.882Z,14.78
2018-10-06T20:22:35.494Z,14.76
2018-10-06T20:25:04.271Z,14.69
2018-10-06T20:27:32.958Z,14.78
2018-10-06T20:30:01.515Z,14.71
2018-10-06T20:32:30.181Z,14.52
2018-10-06T20:34:58.842Z,14.48
2018-10-06T20:37:27.474Z,14.50
2018-10-06T20:39:56.101Z,14.55
2018-10-06T20:42:24.951Z,14.59
2018-10-06T20:44:53.661Z,14.73
2018-10-06T20:47:22.838Z,14.82
2018-10-06T20:49:51.633Z,14.93
2018-10-06T20:52:20.606Z,14.98
2018-10-06T20:54:49.397Z,15.07
2018-10-06T20:57:18.099Z,15.11
2018-10-06T20:59:46.670Z,15.12
2018-10-06T21:02:15.228Z,15.11
2018-10-06T21:04:43.783Z,15.12
2018-10-06T21:07:12.338Z,15.17
2018-10-06T21:09:40.958Z,15.23
2018-10-06T21:12:09.738Z,15.22
2018-10-06T21:14:38.381Z,15.30
2018-10-06T21:17:06.962Z,15.35
2018-10-06T21:19:35.526Z,15.32
2018-10-06T21:22:04.067Z,15.36
2018-10-06T21:24:32.698Z,15.41
2018-10-06T21:27:01.350Z,15.40
2018-10-06T21:29:30.090Z,15.42
2018-10-06T21:31:58.833Z,15.40
2018-10-06T21:34:27.965Z,15.38
2018-10-06T21:36:56.589Z,15.40
2018-10-06T21:39:25.166Z,15.39
2018-10-06T21:42:00.611Z,15.40
2018-10-06T21:44:29.403Z,15.37
2018-10-06T21:46:59.611Z,15.34
2018-10-06T21:49:28.855Z,15.34
2018-10-06T21:51:57.522Z,15.29
2018-10-06T21:54:26.316Z,15.28
2018-10-06T21:56:54.929Z,15.29
2018-10-06T21:59:23.567Z,15.28
2018-10-06T22:01:52.238Z,15.27
2018-10-06T22:04:20.992Z,15.26
2018-10-06T22:06:49.597Z,15.24
2018-10-06T22:09:18.203Z,15.25
2018-10-06T22:11:46.820Z,15.27
2018-10-06T22:14:15.404Z,15.26
2018-10-06T22:16:43.987Z,15.26
2018-10-06T22:19:13.088Z,15.26
2018-10-06T22:21:41.983Z,15.28
2018-10-06T22:24:10.689Z,15.29
2018-10-06T22:26:39.300Z,15.29
2018-10-06T22:29:07.870Z,15.30
2018-10-06T22:31:36.454Z,15.27
2018-10-06T22:34:05.009Z,15.25
2018-10-06T22:36:33.688Z,15.28
2018-10-06T22:39:02.729Z,15.24
2018-10-06T22:41:31.390Z,15.15
2018-10-06T22:44:00.052Z,15.16
2018-10-06T22:46:28.726Z,15.10
2018-10-06T22:48:57.409Z,15.00
2018-10-06T22:51:26.193Z,15.02
2018-10-06T22:53:54.779Z,14.96
2018-10-06T22:56:24.317Z,14.97
2018-10-06T22:58:52.949Z,14.96
2018-10-06T23:01:21.571Z,14.91
2018-10-06T23:03:50.123Z,14.84
2018-10-06T23:06:18.673Z,14.84
2018-10-06T23:08:47.240Z,14.77
2018-10-06T23:11:15.778Z,14.73
2018-10-06T23:13:44.549Z,14.59
2018-10-06T23:16:13.188Z,14.38
2018-10-06T23:18:41.736Z,14.41
2018-10-06T23:21:10.360Z,14.42
2018-10-06T23:23:38.944Z,14.34
2018-10-06T23:26:07.577Z,14.35
2018-10-06T23:28:36.313Z,14.41
2018-10-06T23:31:05.101Z,14.45
2018-10-06T23:33:33.824Z,14.44
2018-10-06T23:36:02.590Z,14.44
2018-10-06T23:38:31.194Z,14.45
2018-10-06T23:40:59.766Z,14.54
2018-10-06T23:43:28.324Z,14.59
2018-10-06T23:45:56.896Z,14.57
2018-10-06T23:48:25.686Z,14.57
2018-10-06T23:50:54.367Z,14.68
2018-10-06T23:53:22.962Z,14.70
2018-10-06T23:55:51.622Z,14.67
2018-10-06T23:58:20.202Z,14.65
